sensor_id;sensor_type;location;lat;lon;timestamp;temperature;humidity
25556;DHT22;13447;57.174;-2.112;2022-09-03T00:02:11;15.00;99.90
25556;DHT22;13447;57.174;-2.112;2022-09-03T00:07:19;15.00;99.90
25556;DHT22;13447;57.174;-2.112;2022-09-03T00:09:52;15.00;99.90
25556;DHT22;13447;57.174;-2.112;2022-09-03T00:12:35;15.00;99.90
25556;DHT22;13447;57.174;-2.112;2022-09-03T00:15:20;14.90;99.90
25556;DHT22;13447;57.174;-2.112;2022-09-03T00:18:03;14.90;99.90
25556;DHT22;13447;57.174;-2.112;2022-09-03T00:20:50;14.90;99.90
25556;DHT22;13447;57.174;-2.112;2022-09-03T00:23:19;14.90;99.90
25556;DHT22;13447;57.174;-2.112;2022-09-03T00:26:13;14.80;99.90
25556;DHT22;13447;57.174;-2.112;2022-09-03T00:31:38;14.80;99.90
25556;DHT22;13447;57.174;-2.112;2022-09-03T00:34:34;14.90;99.90
25556;DHT22;13447;57.174;-2.112;2022-09-03T00:37:06;14.80;99.90
25556;DHT22;13447;57.174;-2.112;2022-09-03T01:42:28;14.90;99.90
25556;DHT22;13447;57.174;-2.112;2022-09-03T01:45:13;14.80;99.90
25556;DHT22;13447;57.174;-2.112;2022-09-03T01:51:07;14.80;99.90
25556;DHT22;13447;57.174;-2.112;2022-09-03T01:57:21;14.80;99.90
25556;DHT22;13447;57.174;-2.112;2022-09-03T02:00:04;14.80;99.90
25556;DHT22;13447;57.174;-2.112;2022-09-03T02:02:32;14.70;99.90
25556;DHT22;13447;57.174;-2.112;2022-09-03T02:05:06;14.70;99.90
25556;DHT22;13447;57.174;-2.112;2022-09-03T02:07:44;14.70;99.90
25556;DHT22;13447;57.174;-2.112;2022-09-03T02:10:18;14.70;99.90
25556;DHT22;13447;57.174;-2.112;2022-09-03T02:12:50;14.80;99.90
25556;DHT22;13447;57.174;-2.112;2022-09-03T02:15:20;14.80;99.90
25556;DHT22;13447;57.174;-2.112;2022-09-03T02:17:50;14.80;99.90
25556;DHT22;13447;57.174;-2.112;2022-09-03T02:20:23;14.80;99.90
25556;DHT22;13447;57.174;-2.112;2022-09-03T02:22:52;14.80;99.90
25556;DHT22;13447;57.174;-2.112;2022-09-03T02:25:21;14.80;99.90
25556;DHT22;13447;57.174;-2.112;2022-09-03T02:27:50;14.90;99.90
25556;DHT22;13447;57.174;-2.112;2022-09-03T02:30:17;14.90;99.90
25556;DHT22;13447;57.174;-2.112;2022-09-03T02:32:44;14.90;99.90
25556;DHT22;13447;57.174;-2.112;2022-09-03T02:35:11;14.90;99.90
25556;DHT22;13447;57.174;-2.112;2022-09-03T02:37:39;14.90;99.90
25556;DHT22;13447;57.174;-2.112;2022-09-03T17:15:42;17.00;99.90
25556;DHT22;13447;57.174;-2.112;2022-09-03T17:18:40;17.00;99.90
25556;DHT22;13447;57.174;-2.112;2022-09-03T17:55:36;16.70;99.90
25556;DHT22;13447;57.174;-2.112;2022-09-03T18:06:29;16.50;99.90
25556;DHT22;13447;57.174;-2.112;2022-09-03T18:09:06;16.50;99.90
25556;DHT22;13447;57.174;-2.112;2022-09-03T18:11:40;16.40;99.90
25556;DHT22;13447;57.174;-2.112;2022-09-03T18:17:34;16.40;99.90
25556;DHT22;13447;57.174;-2.112;2022-09-03T18:20:08;16.40;99.90
25556;DHT22;13447;57.174;-2.112;2022-09-03T18:25:56;16.40;99.90
25556;DHT22;13447;57.174;-2.112;2022-09-03T18:28:53;16.30;99.90
25556;DHT22;13447;57.174;-2.112;2022-09-03T18:31:42;16.30;99.90
25556;DHT22;13447;57.174;-2.112;2022-09-03T18:34:31;16.30;99.90
25556;DHT22;13447;57.174;-2.112;2022-09-03T18:37:22;16.30;99.90
25556;DHT22;13447;57.174;-2.112;2022-09-03T18:40:22;16.30;99.90
25556;DHT22;13447;57.174;-2.112;2022-09-03T18:46:27;16.20;99.90
25556;DHT22;13447;57.174;-2.112;2022-09-03T19:01:39;16.00;99.90
25556;DHT22;13447;57.174;-2.112;2022-09-03T19:10:24;16.10;99.90
25556;DHT22;13447;57.174;-2.112;2022-09-03T19:13:26;16.10;99.90
25556;DHT22;13447;57.174;-2.112;2022-09-03T19:16:25;16.10;99.90
25556;DHT22;13447;57.174;-2.112;2022-09-03T19:22:38;16.10;99.90
25556;DHT22;13447;57.174;-2.112;2022-09-03T19:25:27;16.10;99.90
25556;DHT22;13447;57.174;-2.112;2022-09-03T19:28:24;16.00;99.90
25556;DHT22;13447;57.174;-2.112;2022-09-03T19:37:20;16.00;99.90
25556;DHT22;13447;57.174;-2.112;2022-09-03T19:40:45;16.00;99.90
25556;DHT22;13447;57.174;-2.112;2022-09-03T19:44:14;16.10;99.90
25556;DHT22;13447;57.174;-2.112;2022-09-03T19:47:03;16.00;99.90
25556;DHT22;13447;57.174;-2.112;2022-09-03T19:53:18;16.00;99.90
25556;DHT22;13447;57.174;-2.112;2022-09-03T19:56:13;16.00;99.90
25556;DHT22;13447;57.174;-2.112;2022-09-03T19:59:05;16.00;99.90
25556;DHT22;13447;57.174;-2.112;2022-09-03T20:01:51;15.90;99.90
25556;DHT22;13447;57.174;-2.112;2022-09-03T20:04:47;15.90;99.90
25556;DHT22;13447;57.174;-2.112;2022-09-03T20:07:34;15.90;99.90
25556;DHT22;13447;57.174;-2.112;2022-09-03T20:10:27;15.90;99.90
25556;DHT22;13447;57.174;-2.112;2022-09-03T20:13:10;16.00;99.90
25556;DHT22;13447;57.174;-2.112;2022-09-03T20:21:14;15.90;99.90
25556;DHT22;13447;57.174;-2.112;2022-09-03T20:29:01;15.90;99.90
25556;DHT22;13447;57.174;-2.112;2022-09-03T20:35:24;15.90;99.90
25556;DHT22;13447;57.174;-2.112;2022-09-03T20:43:22;15.90;99.90
25556;DHT22;13447;57.174;-2.112;2022-09-03T20:52:11;15.90;99.90
25556;DHT22;13447;57.174;-2.112;2022-09-03T21:00:14;15.90;99.90
25556;DHT22;13447;57.174;-2.112;2022-09-03T21:05:42;15.90;99.90
25556;DHT22;13447;57.174;-2.112;2022-09-03T21:08:41;15.80;99.90
25556;DHT22;13447;57.174;-2.112;2022-09-03T21:11:20;15.90;99.90
25556;DHT22;13447;57.174;-2.112;2022-09-03T21:14:04;15.90;99.90
25556;DHT22;13447;57.174;-2.112;2022-09-03T21:16:56;15.90;99.90
25556;DHT22;13447;57.174;-2.112;2022-09-03T21:25:21;15.90;99.90
25556;DHT22;13447;57.174;-2.112;2022-09-03T21:28:02;15.90;99.90
25556;DHT22;13447;57.174;-2.112;2022-09-03T21:30:32;15.90;99.90
25556;DHT22;13447;57.174;-2.112;2022-09-03T21:33:12;15.90;99.90
25556;DHT22;13447;57.174;-2.112;2022-09-03T21:36:10;15.90;99.90
25556;DHT22;13447;57.174;-2.112;2022-09-03T21:38:38;15.90;99.90
25556;DHT22;13447;57.174;-2.112;2022-09-03T21:43:51;15.90;99.90
25556;DHT22;13447;57.174;-2.112;2022-09-03T21:48:59;15.90;99.90
25556;DHT22;13447;57.174;-2.112;2022-09-03T21:54:26;15.90;99.90
25556;DHT22;13447;57.174;-2.112;2022-09-03T22:02:26;15.80;99.90
25556;DHT22;13447;57.174;-2.112;2022-09-03T22:04:48;15.80;99.90
25556;DHT22;13447;57.174;-2.112;2022-09-03T22:15:07;15.80;99.90
25556;DHT22;13447;57.174;-2.112;2022-09-03T22:17:41;15.90;99.90
25556;DHT22;13447;57.174;-2.112;2022-09-03T22:20:13;15.80;99.90
25556;DHT22;13447;57.174;-2.112;2022-09-03T22:22:53;15.80;99.90
25556;DHT22;13447;57.174;-2.112;2022-09-03T22:25:43;15.80;99.90
25556;DHT22;13447;57.174;-2.112;2022-09-03T22:28:18;15.80;99.90
25556;DHT22;13447;57.174;-2.112;2022-09-03T22:31:02;15.80;99.90
25556;DHT22;13447;57.174;-2.112;2022-09-03T22:36:40;15.80;99.90
25556;DHT22;13447;57.174;-2.112;2022-09-03T22:39:15;15.80;99.90
25556;DHT22;13447;57.174;-2.112;2022-09-03T22:47:27;15.90;99.90
25556;DHT22;13447;57.174;-2.112;2022-09-03T22:55:57;15.80;99.90
25556;DHT22;13447;57.174;-2.112;2022-09-03T22:58:30;15.80;99.90
25556;DHT22;13447;57.174;-2.112;2022-09-03T23:01:05;15.80;99.90
25556;DHT22;13447;57.174;-2.112;2022-09-03T23:03:47;15.80;99.90
25556;DHT22;13447;57.174;-2.112;2022-09-03T23:06:30;15.80;99.90
25556;DHT22;13447;57.174;-2.112;2022-09-03T23:09:13;15.80;99.90
25556;DHT22;13447;57.174;-2.112;2022-09-03T23:11:48;15.90;99.90
25556;DHT22;13447;57.174;-2.112;2022-09-03T23:14:36;15.80;99.90
25556;DHT22;13447;57.174;-2.112;2022-09-03T23:17:14;15.80;99.90
25556;DHT22;13447;57.174;-2.112;2022-09-03T23:19:48;15.90;99.90
25556;DHT22;13447;57.174;-2.112;2022-09-03T23:22:39;15.80;99.90
25556;DHT22;13447;57.174;-2.112;2022-09-03T23:25:31;15.80;99.90
25556;DHT22;13447;57.174;-2.112;2022-09-03T23:28:09;15.80;99.90
25556;DHT22;13447;57.174;-2.112;2022-09-03T23:30:36;15.80;99.90
25556;DHT22;13447;57.174;-2.112;2022-09-03T23:33:03;15.90;99.90
25556;DHT22;13447;57.174;-2.112;2022-09-03T23:35:41;15.80;99.90
25556;DHT22;13447;57.174;-2.112;2022-09-03T23:42:07;15.90;99.90
25556;DHT22;13447;57.174;-2.112;2022-09-03T23:49:55;15.90;99.90
